Time;durP1;ratioP1;P1;durP2;ratioP2;P2;SDS_P1;SDS_P2;PMS_P1;PMS_P2;Temp;Humidity;BMP_temperature;BMP_pressure;BME280_temperature;BME280_humidity;BME280_pressure;Samples;Min_cycle;Max_cycle;Signal;HPM_P1;HPM_P2
2024/01/15 00:01:50;;;;;;;3.08;0.70;;;3.40;99.90;;;;;;5065380;28;20031;-46
2024/01/15 00:04:16;;;;;;;4.10;0.98;;;3.30;99.90;;;;;;5065411;28;20031;-45
2024/01/15 00:06:41;;;;;;;2.72;0.90;;;3.30;99.90;;;;;;5065535;28;20083;-47
2024/01/15 00:09:07;;;;;;;4.50;0.90;;;3.20;99.90;;;;;;5065777;28;20152;-49
2024/01/15 00:11:33;;;;;;;4.93;0.95;;;3.20;99.90;;;;;;5065398;28;20032;-47
2024/01/15 00:13:58;;;;;;;2.83;0.85;;;3.20;99.90;;;;;;5065151;28;20087;-47
2024/01/15 00:16:24;;;;;;;3.28;0.98;;;3.20;99.90;;;;;;5065349;28;20078;-46
2024/01/15 00:18:50;;;;;;;3.63;0.73;;;3.20;99.90;;;;;;5065333;28;20033;-47
2024/01/15 00:21:15;;;;;;;4.63;1.05;;;3.20;99.90;;;;;;5064192;28;20052;-46
2024/01/15 00:23:44;;;;;;;3.38;1.00;;;3.20;99.90;;;;;;5065031;28;20025;-46
2024/01/15 00:26:10;;;;;;;5.15;0.93;;;3.20;99.90;;;;;;5065316;28;20036;-46
2024/01/15 00:28:36;;;;;;;4.50;0.90;;;3.20;99.90;;;;;;5065326;28;20195;-46
2024/01/15 00:31:02;;;;;;;2.05;0.73;;;3.20;99.90;;;;;;5065343;28;20029;-46
2024/01/15 00:33:28;;;;;;;4.05;0.90;;;3.10;99.90;;;;;;5064314;28;20344;-46
2024/01/15 00:35:53;;;;;;;6.57;1.08;;;2.90;99.90;;;;;;5065199;28;20242;-49
2024/01/15 00:38:20;;;;;;;2.83;0.90;;;2.80;99.90;;;;;;5064190;28;20283;-50
2024/01/15 00:40:45;;;;;;;4.78;1.00;;;2.70;99.90;;;;;;5068383;28;20024;-46
2024/01/15 00:43:11;;;;;;;2.83;0.70;;;2.70;99.90;;;;;;5069097;28;20087;-45
2024/01/15 00:45:37;;;;;;;5.72;1.08;;;2.60;99.90;;;;;;5068919;28;20038;-47
2024/01/15 00:48:03;;;;;;;5.30;0.90;;;2.60;99.90;;;;;;5068811;28;20074;-52
2024/01/15 00:50:29;;;;;;;3.72;0.88;;;2.50;99.90;;;;;;5068932;28;20036;-47
2024/01/15 00:52:55;;;;;;;4.45;0.90;;;2.40;99.90;;;;;;5068815;28;20070;-46
2024/01/15 00:55:20;;;;;;;4.50;0.98;;;2.40;99.90;;;;;;5068593;28;20055;-45
2024/01/15 00:57:46;;;;;;;4.40;0.90;;;2.40;99.90;;;;;;5068627;28;20099;-46
2024/01/15 01:00:12;;;;;;;3.60;0.80;;;2.40;99.90;;;;;;5068714;28;20202;-46
2024/01/15 01:02:38;;;;;;;1.25;0.77;;;2.30;99.90;;;;;;5068691;28;20299;-45
2024/01/15 01:05:04;;;;;;;3.28;0.98;;;2.40;99.90;;;;;;5068697;28;20040;-47
2024/01/15 01:07:29;;;;;;;3.33;0.90;;;2.50;99.90;;;;;;5068366;28;20084;-46
2024/01/15 01:09:55;;;;;;;2.10;1.00;;;2.60;99.90;;;;;;5068565;28;20036;-46
2024/01/15 01:12:21;;;;;;;6.35;1.00;;;2.70;99.90;;;;;;5068115;28;20037;-47
2024/01/15 01:14:46;;;;;;;2.10;0.75;;;2.80;99.90;;;;;;5068180;28;20053;-47
2024/01/15 01:17:12;;;;;;;5.32;0.85;;;2.90;99.90;;;;;;5068408;28;20036;-47
2024/01/15 01:19:38;;;;;;;2.88;0.75;;;2.90;99.90;;;;;;5068326;28;20306;-49
2024/01/15 01:22:03;;;;;;;5.82;1.52;;;2.90;99.90;;;;;;5067391;28;20056;-46
2024/01/15 01:24:29;;;;;;;5.05;1.33;;;2.90;99.90;;;;;;5068221;28;20029;-48
2024/01/15 01:26:55;;;;;;;2.47;0.82;;;2.80;99.90;;;;;;5067768;28;20032;-48
2024/01/15 01:29:20;;;;;;;3.42;0.85;;;2.70;99.90;;;;;;5068276;28;20028;-49
2024/01/15 01:31:46;;;;;;;3.75;0.90;;;2.60;99.90;;;;;;5068142;28;20175;-48
2024/01/15 01:34:15;;;;;;;8.30;1.20;;;2.50;99.90;;;;;;5067952;28;20069;-46
2024/01/15 01:36:42;;;;;;;3.10;1.00;;;2.40;99.90;;;;;;5067048;28;20063;-47
2024/01/15 01:39:08;;;;;;;3.22;1.00;;;2.40;99.90;;;;;;5067974;28;20098;-48
2024/01/15 01:41:33;;;;;;;5.05;1.17;;;2.40;99.90;;;;;;5066806;28;20028;-48
2024/01/15 01:43:59;;;;;;;2.88;0.90;;;2.30;99.90;;;;;;5067919;28;20091;-48
2024/01/15 01:46:25;;;;;;;5.70;1.08;;;2.30;99.90;;;;;;5066940;28;20040;-47
2024/01/15 01:48:52;;;;;;;2.83;0.90;;;2.20;99.90;;;;;;5066838;28;20310;-47
2024/01/15 01:51:17;;;;;;;2.45;0.80;;;2.20;99.90;;;;;;5048920;28;20039;-47
2024/01/15 01:53:44;;;;;;;5.47;1.13;;;2.10;99.90;;;;;;5066589;28;20068;-47
2024/01/15 01:56:09;;;;;;;3.92;1.10;;;2.00;99.90;;;;;;5067549;28;20039;-47
2024/01/15 01:58:35;;;;;;;4.47;1.10;;;2.00;99.90;;;;;;5066371;28;20021;-45
2024/01/15 02:01:01;;;;;;;3.88;1.02;;;2.00;99.90;;;;;;5067585;28;20029;-47
2024/01/15 02:03:27;;;;;;;5.97;1.10;;;2.00;99.90;;;;;;5067617;28;20033;-46
2024/01/15 02:05:53;;;;;;;2.58;0.88;;;2.10;99.90;;;;;;5067510;28;20025;-46
2024/01/15 02:08:18;;;;;;;4.30;0.90;;;2.20;99.90;;;;;;5067374;28;20063;-47
2024/01/15 02:10:44;;;;;;;3.63;0.90;;;2.30;99.90;;;;;;5067503;28;20037;-46
2024/01/15 02:13:09;;;;;;;4.03;0.93;;;2.30;99.90;;;;;;5067405;28;20032;-51
2024/01/15 02:15:35;;;;;;;2.58;0.80;;;2.40;99.90;;;;;;5049500;28;20062;-46
2024/01/15 02:18:03;;;;;;;3.75;1.13;;;2.50;99.90;;;;;;5067106;28;20048;-46
2024/01/15 02:20:28;;;;;;;4.38;0.85;;;2.60;99.90;;;;;;5067238;28;20091;-47
2024/01/15 02:22:54;;;;;;;4.25;0.88;;;2.70;99.90;;;;;;5067166;28;20045;-46
2024/01/15 02:25:20;;;;;;;6.32;1.00;;;2.80;99.90;;;;;;5066171;28;20056;-46
2024/01/15 02:27:45;;;;;;;3.80;0.80;;;2.90;99.90;;;;;;5066847;28;20017;-49
2024/01/15 02:30:11;;;;;;;4.15;0.80;;;3.00;99.90;;;;;;5049203;28;20036;-48
2024/01/15 02:32:37;;;;;;;4.93;0.93;;;3.10;99.90;;;;;;5066121;28;20083;-49
2024/01/15 02:35:03;;;;;;;8.70;1.15;;;3.20;99.90;;;;;;5066941;28;20025;-47
2024/01/15 02:37:29;;;;;;;1.88;0.77;;;3.30;99.90;;;;;;5066969;28;20029;-49
2024/01/15 02:39:55;;;;;;;1.77;0.52;;;3.40;99.90;;;;;;5066753;28;20052;-47
2024/01/15 02:42:20;;;;;;;2.00;0.60;;;3.40;99.90;;;;;;5066704;28;20025;-47
2024/01/15 02:44:46;;;;;;;2.10;0.70;;;3.50;99.90;;;;;;5065714;28;20035;-49
2024/01/15 02:47:12;;;;;;;2.95;0.90;;;3.50;99.90;;;;;;5066266;28;20039;-47
2024/01/15 02:49:37;;;;;;;1.02;0.70;;;3.60;99.90;;;;;;5066565;28;20021;-48
2024/01/15 02:52:03;;;;;;;2.92;0.73;;;3.60;99.90;;;;;;5066477;28;20031;-45
2024/01/15 02:54:29;;;;;;;3.58;0.80;;;3.60;99.90;;;;;;5049080;28;20056;-48
2024/01/15 02:56:54;;;;;;;3.70;0.65;;;3.60;99.90;;;;;;5066453;28;20025;-47
2024/01/15 02:59:20;;;;;;;3.92;0.90;;;3.60;99.90;;;;;;5066648;28;20025;-45
2024/01/15 03:01:46;;;;;;;0.60;0.50;;;3.70;99.90;;;;;;5065829;28;20043;-48
2024/01/15 03:04:11;;;;;;;4.43;0.90;;;3.70;99.90;;;;;;5066266;28;20092;-44
2024/01/15 03:06:37;;;;;;;3.22;0.85;;;3.70;99.90;;;;;;5065339;28;20301;-44
2024/01/15 03:09:03;;;;;;;2.83;0.55;;;3.80;99.90;;;;;;5066360;28;20059;-48
2024/01/15 03:11:29;;;;;;;2.25;0.70;;;3.80;99.90;;;;;;5065594;28;20078;-44
2024/01/15 03:13:54;;;;;;;4.03;0.55;;;3.70;99.90;;;;;;5066222;28;20025;-44
2024/01/15 03:16:20;;;;;;;2.22;0.70;;;3.70;99.90;;;;;;5065961;28;20060;-44
2024/01/15 03:18:46;;;;;;;4.43;0.70;;;3.60;99.90;;;;;;5066282;28;20033;-47
2024/01/15 03:21:11;;;;;;;2.17;0.70;;;3.60;99.90;;;;;;5064989;28;20021;-46
2024/01/15 03:23:37;;;;;;;3.65;0.80;;;3.60;99.90;;;;;;5066195;28;20033;-49
2024/01/15 03:26:03;;;;;;;5.50;0.90;;;3.60;99.90;;;;;;5065900;28;20156;-49
2024/01/15 03:28:30;;;;;;;1.65;0.70;;;3.60;99.90;;;;;;5066005;28;20063;-49
2024/01/15 03:30:56;;;;;;;1.30;0.57;;;3.60;99.90;;;;;;5065983;28;20059;-45
2024/01/15 03:33:21;;;;;;;1.85;0.70;;;3.60;99.90;;;;;;5065042;28;20286;-50
2024/01/15 03:35:47;;;;;;;3.60;0.60;;;3.50;99.90;;;;;;5066010;28;20279;-47
2024/01/15 03:38:13;;;;;;;2.38;0.68;;;3.40;99.90;;;;;;5065782;28;20037;-49
2024/01/15 03:40:38;;;;;;;2.80;0.68;;;3.40;99.90;;;;;;5065912;28;20044;-49
2024/01/15 03:43:04;;;;;;;2.97;0.70;;;3.30;99.90;;;;;;5065899;28;20071;-50
2024/01/15 03:45:30;;;;;;;0.80;0.60;;;3.20;99.90;;;;;;5065890;28;20033;-48
2024/01/15 03:47:55;;;;;;;2.30;0.60;;;3.20;99.90;;;;;;5065561;28;20028;-50
2024/01/15 03:50:21;;;;;;;2.25;0.55;;;3.10;99.90;;;;;;5065425;28;20123;-48
2024/01/15 03:52:46;;;;;;;1.63;0.50;;;3.10;99.90;;;;;;5065214;28;20032;-48
2024/01/15 03:55:12;;;;;;;1.30;0.60;;;3.00;99.90;;;;;;5048160;28;20376;-47
2024/01/15 03:57:38;;;;;;;1.40;0.70;;;3.00;99.90;;;;;;5065351;28;20202;-47
2024/01/15 04:00:04;;;;;;;1.38;0.60;;;3.00;99.90;;;;;;5064633;28;20033;-47
2024/01/15 04:02:30;;;;;;;2.78;1.67;;;3.00;99.90;;;;;;5064350;28;20020;-46
2024/01/15 04:04:55;;;;;;;2.30;0.70;;;2.90;99.90;;;;;;5064936;28;20087;-46
2024/01/15 04:07:21;;;;;;;2.45;0.75;;;2.90;99.90;;;;;;5065307;28;20229;-47
2024/01/15 04:09:47;;;;;;;2.05;0.57;;;2.80;99.90;;;;;;5065351;28;20058;-47
2024/01/15 04:12:12;;;;;;;6.35;0.80;;;2.80;99.90;;;;;;5065449;28;20029;-50
2024/01/15 04:14:38;;;;;;;3.55;0.77;;;2.80;99.90;;;;;;5066625;28;20045;-50
2024/01/15 04:17:04;;;;;;;4.55;1.00;;;2.70;99.90;;;;;;5069520;28;20029;-52
2024/01/15 04:19:29;;;;;;;2.35;0.70;;;2.70;99.90;;;;;;5069278;28;20056;-49
2024/01/15 04:21:55;;;;;;;2.63;0.73;;;2.70;99.90;;;;;;5069119;28;20033;-49
2024/01/15 04:24:20;;;;;;;3.20;0.70;;;2.70;99.90;;;;;;5068119;28;20059;-49
2024/01/15 04:26:46;;;;;;;1.27;0.60;;;2.70;99.90;;;;;;5069419;28;20040;-49
2024/01/15 04:29:12;;;;;;;2.72;0.60;;;2.80;99.90;;;;;;5069427;28;20033;-50
2024/01/15 04:31:38;;;;;;;3.03;0.98;;;2.90;99.90;;;;;;5068382;28;20098;-48
2024/01/15 04:34:03;;;;;;;4.18;0.68;;;3.10;99.90;;;;;;5069277;28;20029;-50
2024/01/15 04:36:29;;;;;;;1.60;0.60;;;3.20;99.90;;;;;;5069214;28;20140;-47
2024/01/15 04:38:54;;;;;;;5.25;0.80;;;3.20;99.90;;;;;;5069061;28;20073;-47
2024/01/15 04:41:20;;;;;;;2.40;0.60;;;3.10;99.90;;;;;;5069097;28;20332;-50
2024/01/15 04:43:46;;;;;;;4.07;0.95;;;3.10;99.90;;;;;;5069009;28;20041;-50
2024/01/15 04:46:12;;;;;;;3.25;0.80;;;3.10;99.90;;;;;;5068935;28;20021;-49
2024/01/15 04:48:37;;;;;;;3.20;0.70;;;3.00;99.90;;;;;;5068044;28;20033;-49
2024/01/15 04:51:08;;;;;;;3.33;0.95;;;3.00;99.90;;;;;;5068964;28;20040;-50
2024/01/15 04:53:34;;;;;;;2.90;1.05;;;2.90;99.90;;;;;;5069011;28;20029;-49
2024/01/15 04:56:00;;;;;;;4.72;1.23;;;2.90;99.90;;;;;;5068716;28;20346;-50
2024/01/15 04:58:27;;;;;;;2.72;1.02;;;2.80;99.90;;;;;;5068785;28;20075;-49
2024/01/15 05:04:34;;;;;;;2.53;0.80;;;2.80;99.90;;;;;;5068620;28;20078;-47
2024/01/15 05:07:00;;;;;;;8.07;1.08;;;2.80;99.90;;;;;;5068511;28;20041;-47
2024/01/15 05:09:26;;;;;;;1.85;0.70;;;2.80;99.90;;;;;;5068354;28;20035;-46
2024/01/15 05:11:51;;;;;;;3.22;0.70;;;2.80;99.90;;;;;;5068471;28;20032;-46
2024/01/15 05:14:17;;;;;;;4.53;0.75;;;2.80;99.90;;;;;;5068254;28;20384;-47
2024/01/15 05:16:49;;;;;;;3.95;0.73;;;2.80;99.90;;;;;;5068536;28;20040;-46
2024/01/15 05:19:15;;;;;;;5.78;0.98;;;2.70;99.90;;;;;;5068449;28;20025;-47
2024/01/15 05:21:40;;;;;;;4.13;0.90;;;2.70;99.90;;;;;;5068304;28;20032;-46
2024/01/15 05:24:07;;;;;;;4.18;0.70;;;2.70;99.90;;;;;;5067261;28;20132;-48
2024/01/15 05:26:33;;;;;;;3.08;0.70;;;2.70;99.90;;;;;;5066919;28;20036;-47
2024/01/15 05:28:59;;;;;;;5.75;0.90;;;2.70;99.90;;;;;;5068203;28;20052;-47
2024/01/15 05:31:24;;;;;;;3.75;0.80;;;2.80;99.90;;;;;;5068152;28;20040;-48
2024/01/15 05:33:50;;;;;;;4.05;1.08;;;2.80;99.90;;;;;;5068085;28;20024;-49
2024/01/15 05:36:15;;;;;;;3.22;0.80;;;2.90;99.90;;;;;;5067969;28;20024;-50
2024/01/15 05:38:41;;;;;;;4.10;1.15;;;3.00;99.90;;;;;;5068002;28;20100;-47
2024/01/15 05:41:07;;;;;;;5.25;1.25;;;3.00;99.90;;;;;;5068059;28;20072;-49
2024/01/15 05:43:32;;;;;;;4.13;0.82;;;2.90;99.90;;;;;;5066810;28;20095;-49
2024/01/15 05:45:58;;;;;;;1.83;0.80;;;2.90;99.90;;;;;;5066808;28;20025;-50
2024/01/15 05:48:24;;;;;;;6.93;1.00;;;2.90;99.90;;;;;;5067935;28;20107;-49
2024/01/15 05:50:49;;;;;;;4.78;0.80;;;2.90;99.90;;;;;;5067732;28;20039;-49
2024/01/15 05:53:15;;;;;;;4.57;1.23;;;2.80;99.90;;;;;;5067793;28;20090;-49
2024/01/15 05:55:41;;;;;;;2.05;0.70;;;2.90;99.90;;;;;;5067661;28;20033;-48
2024/01/15 05:58:06;;;;;;;6.45;1.20;;;2.80;99.90;;;;;;5067150;28;20037;-47
2024/01/15 06:00:35;;;;;;;2.80;0.70;;;2.80;99.90;;;;;;5067734;28;20051;-47
2024/01/15 06:03:01;;;;;;;4.68;1.17;;;2.80;99.90;;;;;;5067635;28;20089;-46
2024/01/15 06:05:27;;;;;;;3.78;0.80;;;2.70;99.90;;;;;;5067487;28;20032;-47
2024/01/15 06:07:53;;;;;;;3.15;0.63;;;2.70;99.90;;;;;;5067620;28;20286;-47
2024/01/15 06:10:19;;;;;;;3.53;0.90;;;2.70;99.90;;;;;;5067303;28;20024;-50
2024/01/15 06:12:44;;;;;;;3.13;0.98;;;2.70;99.90;;;;;;5067394;28;20028;-49
2024/01/15 06:15:10;;;;;;;2.10;0.65;;;2.70;99.90;;;;;;5065783;28;20056;-49
2024/01/15 06:17:36;;;;;;;2.08;0.63;;;2.70;99.90;;;;;;5067217;28;20051;-47
2024/01/15 06:20:03;;;;;;;3.22;0.90;;;2.70;99.90;;;;;;5067252;28;20048;-46
2024/01/15 06:22:28;;;;;;;2.67;0.70;;;2.70;99.90;;;;;;5067383;28;20032;-47
2024/01/15 06:24:55;;;;;;;2.70;0.88;;;2.70;99.90;;;;;;5067062;28;20033;-47
2024/01/15 06:27:21;;;;;;;2.00;0.80;;;2.70;99.90;;;;;;5067030;28;20024;-50
2024/01/15 06:29:49;;;;;;;5.47;1.98;;;2.70;99.90;;;;;;5066926;28;20300;-48
2024/01/15 06:32:15;;;;;;;3.63;1.20;;;2.70;99.90;;;;;;5066818;28;20152;-50
2024/01/15 06:34:40;;;;;;;3.05;0.80;;;2.80;99.90;;;;;;5066846;28;20029;-46
2024/01/15 06:37:06;;;;;;;3.40;1.00;;;2.80;99.90;;;;;;5066278;28;20032;-49
2024/01/15 06:39:32;;;;;;;3.67;0.90;;;2.70;99.90;;;;;;5066518;28;20040;-49
2024/01/15 06:41:58;;;;;;;2.58;0.82;;;2.70;99.90;;;;;;5066707;28;20040;-49
2024/01/15 06:44:23;;;;;;;1.90;0.63;;;2.70;99.90;;;;;;5066704;28;20082;-47
2024/01/15 06:46:49;;;;;;;3.42;0.90;;;2.70;99.90;;;;;;5066537;28;20025;-49
2024/01/15 06:49:15;;;;;;;2.90;1.02;;;2.70;99.90;;;;;;5066222;28;20064;-49
2024/01/15 06:51:41;;;;;;;3.22;0.70;;;2.70;99.90;;;;;;5066237;28;20033;-46
2024/01/15 06:54:07;;;;;;;2.97;0.70;;;2.70;99.90;;;;;;5066527;28;20033;-49
2024/01/15 06:56:33;;;;;;;4.53;1.13;;;2.70;99.90;;;;;;5048909;28;20082;-49
2024/01/15 06:58:58;;;;;;;6.35;1.20;;;2.70;99.90;;;;;;5066440;28;20029;-47
2024/01/15 07:01:24;;;;;;;2.70;0.80;;;2.60;99.90;;;;;;5066201;28;20100;-48
2024/01/15 07:03:50;;;;;;;3.05;0.82;;;2.70;99.90;;;;;;5066028;28;20082;-46
2024/01/15 07:06:16;;;;;;;4.90;1.05;;;2.60;99.90;;;;;;5066292;28;20278;-47
2024/01/15 07:08:42;;;;;;;4.03;1.13;;;2.60;99.90;;;;;;5066224;28;20114;-46
2024/01/15 07:11:08;;;;;;;7.07;1.48;;;2.70;99.90;;;;;;5065255;28;20045;-47
2024/01/15 07:13:34;;;;;;;3.50;0.77;;;2.70;99.90;;;;;;5064967;28;20116;-49
2024/01/15 07:15:59;;;;;;;4.13;0.90;;;2.70;99.90;;;;;;5066011;28;20048;-46
2024/01/15 07:18:25;;;;;;;3.50;1.00;;;2.70;99.90;;;;;;5065564;28;20032;-48
2024/01/15 07:20:51;;;;;;;4.93;1.00;;;2.70;99.90;;;;;;5065645;28;20084;-46
2024/01/15 07:23:17;;;;;;;5.03;0.90;;;2.60;99.90;;;;;;5065840;28;20283;-49
2024/01/15 07:25:43;;;;;;;4.88;2.10;;;2.60;99.90;;;;;;5065229;28;20029;-48
2024/01/15 07:28:08;;;;;;;6.05;1.67;;;2.50;99.90;;;;;;5065948;28;20043;-49
2024/01/15 07:30:34;;;;;;;1.13;0.65;;;2.50;99.90;;;;;;5065853;28;20086;-50
2024/01/15 07:33:00;;;;;;;4.93;1.10;;;2.50;99.90;;;;;;5064757;28;20266;-49
2024/01/15 07:35:25;;;;;;;4.22;0.90;;;2.50;99.90;;;;;;5065884;28;20101;-50
2024/01/15 07:37:51;;;;;;;8.05;5.32;;;2.50;99.90;;;;;;5065772;28;20225;-49
2024/01/15 07:40:17;;;;;;;4.55;1.00;;;2.40;99.90;;;;;;5066371;28;20028;-50
2024/01/15 07:42:42;;;;;;;5.85;1.38;;;2.40;99.90;;;;;;5065541;28;20086;-49
2024/01/15 07:45:11;;;;;;;5.13;1.77;;;2.40;99.90;;;;;;5064560;28;20044;-48
2024/01/15 07:47:37;;;;;;;10.90;2.90;;;2.40;99.90;;;;;;5065301;28;20312;-49
2024/01/15 07:50:04;;;;;;;17.60;4.75;;;2.50;99.90;;;;;;5064195;28;20036;-49
2024/01/15 07:52:30;;;;;;;10.75;2.50;;;2.40;99.90;;;;;;5065429;28;20037;-49
2024/01/15 07:54:56;;;;;;;9.75;3.55;;;2.40;99.90;;;;;;5065384;28;20029;-48
2024/01/15 07:57:22;;;;;;;11.98;3.83;;;2.40;99.90;;;;;;5065274;28;20314;-49
2024/01/15 07:59:48;;;;;;;9.75;2.92;;;2.40;99.90;;;;;;5065411;28;20036;-49
2024/01/15 08:02:14;;;;;;;13.35;4.85;;;2.40;99.90;;;;;;5065225;28;20021;-49
2024/01/15 08:04:39;;;;;;;8.95;2.17;;;2.40;99.90;;;;;;5065497;28;20095;-47
2024/01/15 08:07:06;;;;;;;8.10;4.05;;;2.30;99.90;;;;;;5065401;28;20032;-50
2024/01/15 08:09:32;;;;;;;8.07;2.50;;;2.30;99.90;;;;;;5065079;28;20025;-48
2024/01/15 08:11:58;;;;;;;9.05;2.30;;;2.30;99.90;;;;;;5065137;28;20096;-50
2024/01/15 08:14:24;;;;;;;9.18;1.73;;;2.30;99.90;;;;;;5065050;28;20145;-47
2024/01/15 08:16:50;;;;;;;6.55;1.50;;;2.30;99.90;;;;;;5065158;28;20234;-48
2024/01/15 08:19:15;;;;;;;6.93;2.30;;;2.30;99.90;;;;;;5065067;28;20130;-47
2024/01/15 08:21:41;;;;;;;5.22;1.30;;;2.30;99.90;;;;;;5064870;28;20096;-48
2024/01/15 08:24:07;;;;;;;6.03;1.70;;;2.30;99.90;;;;;;5065111;28;20056;-50
2024/01/15 08:26:33;;;;;;;2.75;1.33;;;2.30;99.90;;;;;;5064095;28;20110;-49
2024/01/15 08:28:58;;;;;;;4.15;1.20;;;2.30;99.90;;;;;;5064990;28;20275;-48
2024/01/15 08:31:24;;;;;;;3.95;1.13;;;2.30;99.90;;;;;;5064907;28;20047;-49
2024/01/15 08:33:50;;;;;;;5.45;1.30;;;2.30;99.90;;;;;;5064837;28;20092;-48
2024/01/15 08:36:16;;;;;;;4.47;1.08;;;2.30;99.90;;;;;;5065058;28;20060;-48
2024/01/15 08:38:42;;;;;;;4.97;0.98;;;2.30;99.90;;;;;;5064796;28;20037;-49
2024/01/15 08:41:08;;;;;;;10.38;2.45;;;2.30;99.90;;;;;;5064506;28;20052;-46
2024/01/15 08:43:34;;;;;;;6.20;1.60;;;2.30;99.90;;;;;;5064602;28;20269;-46
2024/01/15 08:46:00;;;;;;;10.15;3.70;;;2.30;99.90;;;;;;5064698;28;20024;-49
2024/01/15 08:48:27;;;;;;;7.25;2.83;;;2.30;99.90;;;;;;5064870;28;20033;-47
2024/01/15 08:50:54;;;;;;;6.78;3.15;;;2.30;99.90;;;;;;5064578;28;20176;-47
2024/01/15 08:53:20;;;;;;;8.25;2.38;;;2.30;99.90;;;;;;5064596;28;20044;-46
2024/01/15 08:55:45;;;;;;;7.45;3.80;;;2.30;99.90;;;;;;5064540;28;20186;-48
2024/01/15 08:58:11;;;;;;;4.10;2.13;;;2.30;99.90;;;;;;5064330;28;20056;-45
2024/01/15 09:00:37;;;;;;;6.40;2.83;;;2.30;99.90;;;;;;5065892;28;20222;-48
2024/01/15 09:03:03;;;;;;;4.90;1.88;;;2.20;99.90;;;;;;5069023;28;20199;-45
2024/01/15 09:05:28;;;;;;;8.15;2.80;;;2.20;99.90;;;;;;5068573;28;20302;-46
2024/01/15 09:07:54;;;;;;;2.50;1.33;;;2.10;99.90;;;;;;5068187;28;20036;-48
2024/01/15 09:10:20;;;;;;;4.50;1.80;;;2.20;99.90;;;;;;5068131;28;20024;-44
2024/01/15 09:12:46;;;;;;;4.28;2.03;;;2.30;99.90;;;;;;5068139;28;20060;-45
2024/01/15 09:15:11;;;;;;;3.72;1.00;;;2.40;99.90;;;;;;5067975;28;20052;-48
2024/01/15 09:17:37;;;;;;;3.03;1.10;;;2.50;99.90;;;;;;5068016;28;20167;-45
2024/01/15 09:20:05;;;;;;;4.60;1.10;;;2.60;99.90;;;;;;5067858;28;20045;-46
2024/01/15 09:22:31;;;;;;;6.25;1.05;;;2.50;99.90;;;;;;5066721;28;20080;-49
2024/01/15 09:24:56;;;;;;;8.60;1.63;;;2.50;99.90;;;;;;5067029;28;20025;-46
2024/01/15 09:27:22;;;;;;;3.83;1.20;;;2.60;99.90;;;;;;5067847;28;20029;-47
2024/01/15 09:29:48;;;;;;;4.30;1.20;;;2.70;99.90;;;;;;5067504;28;20349;-49
2024/01/15 09:32:15;;;;;;;2.35;1.10;;;2.80;99.90;;;;;;5066787;28;20182;-47
2024/01/15 09:34:41;;;;;;;4.55;1.20;;;3.10;99.90;;;;;;5067830;28;20029;-46
2024/01/15 09:37:07;;;;;;;5.07;1.33;;;4.20;99.90;;;;;;5067644;28;20027;-47
2024/01/15 09:39:32;;;;;;;2.53;1.02;;;5.00;99.90;;;;;;5066671;28;20234;-49
2024/01/15 09:41:59;;;;;;;5.15;1.15;;;6.30;99.90;;;;;;5067066;28;20094;-49
2024/01/15 09:44:26;;;;;;;1.45;0.82;;;7.30;99.90;;;;;;5050051;28;20291;-49
2024/01/15 09:46:52;;;;;;;5.25;2.70;;;8.00;99.90;;;;;;5066500;28;20036;-49
2024/01/15 09:49:17;;;;;;;3.97;1.10;;;8.60;99.90;;;;;;5067951;28;20028;-49
2024/01/15 09:51:43;;;;;;;4.40;1.27;;;8.80;99.90;;;;;;5067441;28;20283;-47
2024/01/15 09:54:09;;;;;;;2.78;0.95;;;9.30;99.90;;;;;;5066488;28;20093;-47
2024/01/15 09:56:35;;;;;;;7.28;1.20;;;9.80;99.90;;;;;;5066349;28;20065;-48
2024/01/15 09:59:01;;;;;;;4.13;0.80;;;9.50;99.90;;;;;;5067258;28;20024;-50
2024/01/15 10:01:28;;;;;;;3.53;1.15;;;9.10;99.90;;;;;;5066333;28;20021;-48
2024/01/15 10:03:54;;;;;;;2.88;1.00;;;8.00;99.90;;;;;;5066218;28;20033;-50
2024/01/15 10:06:20;;;;;;;3.75;1.52;;;7.20;99.90;;;;;;5067165;28;20021;-49
2024/01/15 10:08:49;;;;;;;3.03;1.08;;;6.50;99.90;;;;;;5049822;28;20187;-50
2024/01/15 10:11:14;;;;;;;4.80;2.58;;;6.10;99.90;;;;;;5066092;28;20036;-49
2024/01/15 10:13:40;;;;;;;3.72;1.50;;;5.80;99.90;;;;;;5065511;28;20035;-50
2024/01/15 10:16:06;;;;;;;3.47;1.30;;;5.70;99.90;;;;;;5065607;28;20153;-50
2024/01/15 10:18:32;;;;;;;2.65;1.30;;;5.60;99.90;;;;;;5066998;28;20048;-49
2024/01/15 10:20:58;;;;;;;6.07;1.10;;;5.50;99.90;;;;;;5066977;28;20144;-49
2024/01/15 10:23:26;;;;;;;6.88;1.23;;;5.40;99.90;;;;;;5066019;28;20040;-50
2024/01/15 10:25:52;;;;;;;3.97;1.40;;;5.20;99.90;;;;;;5067049;28;20164;-51
2024/01/15 10:28:19;;;;;;;4.40;1.70;;;5.00;99.90;;;;;;5066247;28;20032;-50
2024/01/15 10:30:44;;;;;;;2.42;1.42;;;4.80;99.90;;;;;;5066833;28;20029;-50
2024/01/15 10:33:11;;;;;;;3.05;1.35;;;4.70;99.90;;;;;;5066260;28;20029;-50
2024/01/15 10:35:37;;;;;;;8.00;1.95;;;4.60;99.90;;;;;;5066465;28;20029;-50
2024/01/15 10:38:03;;;;;;;7.57;2.30;;;4.60;99.90;;;;;;5065293;28;20096;-49
2024/01/15 10:40:29;;;;;;;8.18;2.22;;;4.50;99.90;;;;;;5066422;28;20338;-47
2024/01/15 10:42:54;;;;;;;5.97;2.05;;;4.50;99.90;;;;;;5065102;28;20179;-46
2024/01/15 10:45:21;;;;;;;5.55;2.00;;;4.70;99.90;;;;;;5066042;28;20096;-48
2024/01/15 10:47:48;;;;;;;7.95;2.50;;;4.90;99.90;;;;;;5065784;28;20028;-48
2024/01/15 10:50:14;;;;;;;8.77;4.30;;;5.10;99.90;;;;;;5065033;28;20093;-48
2024/01/15 10:52:40;;;;;;;8.52;4.45;;;5.40;99.90;;;;;;5066174;28;20045;-49
2024/01/15 10:55:10;;;;;;;8.50;3.60;;;5.40;99.90;;;;;;5066139;28;20089;-46
2024/01/15 10:57:39;;;;;;;8.50;3.20;;;5.30;99.90;;;;;;5065317;28;20033;-45
2024/01/15 11:00:05;;;;;;;7.65;3.20;;;5.20;99.90;;;;;;5065968;28;20021;-46
2024/01/15 11:02:35;;;;;;;8.38;2.70;;;5.00;99.90;;;;;;5064746;28;20101;-46
2024/01/15 11:05:01;;;;;;;5.53;1.73;;;5.00;99.90;;;;;;5064989;28;20078;-46
2024/01/15 11:07:26;;;;;;;6.78;2.40;;;4.90;99.90;;;;;;5065278;28;20088;-47
2024/01/15 11:09:52;;;;;;;7.03;2.15;;;4.90;99.90;;;;;;5065783;28;20040;-48
2024/01/15 11:12:19;;;;;;;2.83;1.00;;;5.00;99.90;;;;;;5048157;28;20025;-45
2024/01/15 11:14:51;;;;;;;6.07;2.20;;;5.00;99.90;;;;;;5064754;28;20116;-49
2024/01/15 11:17:17;;;;;;;14.63;5.97;;;5.00;99.90;;;;;;5065542;28;20100;-47
2024/01/15 11:19:53;;;;;;;3.38;1.35;;;5.20;99.90;;;;;;5065494;28;20032;-49
2024/01/15 11:22:33;;;;;;;6.68;2.10;;;5.50;99.90;;;;;;5065734;28;20033;-48
2024/01/15 11:25:02;;;;;;;4.75;1.58;;;5.70;99.90;;;;;;5063930;28;20112;-46
2024/01/15 11:27:44;;;;;;;6.85;1.88;;;5.80;99.90;;;;;;5065104;28;20217;-49
2024/01/15 11:30:11;;;;;;;6.82;1.98;;;5.80;99.90;;;;;;5065283;28;20032;-49
2024/01/15 11:32:36;;;;;;;8.35;2.45;;;5.80;99.90;;;;;;5065512;28;20283;-47
2024/01/15 11:35:02;;;;;;;8.27;2.55;;;5.70;99.90;;;;;;5065434;28;20035;-49
2024/01/15 11:37:51;;;;;;;7.47;2.00;;;5.70;99.90;;;;;;5064074;28;20287;-49
2024/01/15 11:40:20;;;;;;;4.60;1.50;;;5.60;99.90;;;;;;5065249;28;20027;-49
2024/01/15 11:42:47;;;;;;;14.02;3.05;;;5.60;99.90;;;;;;5065288;28;20025;-50
2024/01/15 11:45:16;;;;;;;9.15;2.47;;;5.60;99.90;;;;;;5064780;28;20033;-50
2024/01/15 11:48:14;;;;;;;6.35;1.70;;;5.60;99.90;;;;;;5064704;28;20036;-48
2024/01/15 11:50:41;;;;;;;12.43;2.67;;;5.50;99.90;;;;;;5064902;28;20115;-48
2024/01/15 11:53:17;;;;;;;4.95;1.42;;;5.30;99.90;;;;;;5064099;28;20226;-50
2024/01/15 11:55:44;;;;;;;3.30;0.85;;;5.20;99.90;;;;;;5048236;28;20095;-44
2024/01/15 11:58:10;;;;;;;7.28;1.70;;;5.20;99.90;;;;;;5047692;28;20056;-46
2024/01/15 12:00:47;;;;;;;8.00;2.00;;;6.60;99.90;;;;;;5064205;28;20017;-49
2024/01/15 12:03:13;;;;;;;5.00;1.50;;;8.90;99.90;;;;;;5064973;28;20074;-51
2024/01/15 12:05:38;;;;;;;7.18;2.00;;;10.50;99.90;;;;;;5064744;28;20096;-51
2024/01/15 12:08:10;;;;;;;5.63;2.20;;;11.70;99.90;;;;;;5064589;28;20025;-51
2024/01/15 12:10:36;;;;;;;5.45;1.27;;;12.70;99.90;;;;;;5063805;28;20345;-48
2024/01/15 12:13:15;;;;;;;5.00;1.48;;;13.00;99.90;;;;;;5063691;28;20029;-50
2024/01/15 12:15:45;;;;;;;3.83;1.20;;;13.50;99.90;;;;;;5063641;28;20049;-50
2024/01/15 12:18:12;;;;;;;5.10;1.38;;;13.90;99.90;;;;;;5064804;28;20032;-51
2024/01/15 12:20:39;;;;;;;20.98;2.38;;;13.20;99.90;;;;;;5064981;28;20084;-51
2024/01/15 12:23:05;;;;;;;6.65;1.10;;;13.40;99.90;;;;;;5063784;28;20163;-51
2024/01/15 12:25:31;;;;;;;3.65;1.30;;;13.40;99.90;;;;;;5063474;28;20033;-51
2024/01/15 12:27:57;;;;;;;4.53;1.70;;;13.50;99.90;;;;;;5063784;28;20037;-50
2024/01/15 12:30:23;;;;;;;8.18;1.63;;;13.60;99.90;;;;;;5064744;28;20025;-49
2024/01/15 12:32:49;;;;;;;5.47;1.60;;;14.10;99.90;;;;;;5064575;28;20044;-51
2024/01/15 12:35:15;;;;;;;4.75;1.33;;;14.30;99.90;;;;;;5065398;28;20041;-52
2024/01/15 12:37:41;;;;;;;6.82;1.38;;;14.30;99.90;;;;;;5067459;28;20100;-51
2024/01/15 12:40:07;;;;;;;5.10;1.80;;;14.10;99.90;;;;;;5068717;28;20036;-51
2024/01/15 12:42:33;;;;;;;5.40;1.17;;;14.10;99.90;;;;;;5068715;28;20029;-51
2024/01/15 12:45:00;;;;;;;5.45;1.60;;;14.20;99.90;;;;;;5067433;28;20232;-51
2024/01/15 12:47:26;;;;;;;4.93;1.38;;;14.30;99.90;;;;;;5067055;28;20032;-50
2024/01/15 12:49:55;;;;;;;3.05;1.20;;;13.50;99.90;;;;;;5068360;28;20025;-51
2024/01/15 12:52:21;;;;;;;5.57;1.30;;;11.60;99.90;;;;;;5067302;28;20029;-52
2024/01/15 12:54:48;;;;;;;3.53;1.10;;;10.10;99.90;;;;;;5068762;28;20041;-51